createdAt,value
2023-05-06T00:01:56.606Z,10.20
2023-05-06T00:04:25.195Z,10.10
2023-05-06T00:06:54.563Z,10.00
2023-05-06T00:09:24.485Z,10.00
2023-05-06T00:11:52.955Z,9.90
2023-05-06T00:14:21.931Z,10.00
2023-05-06T00:16:52.705Z,9.90
2023-05-06T00:19:21.692Z,9.90
2023-05-06T00:21:50.826Z,9.90
2023-05-06T00:24:19.450Z,9.90
2023-05-06T00:26:48.423Z,9.90
2023-05-06T00:29:17.166Z,9.90
2023-05-06T00:31:46.809Z,9.80
2023-05-06T00:34:16.907Z,9.80
2023-05-06T00:36:45.548Z,9.80
2023-05-06T00:39:14.270Z,9.80
2023-05-06T00:41:42.924Z,9.80
2023-05-06T00:44:13.785Z,9.80
2023-05-06T00:46:44.067Z,9.80
2023-05-06T00:49:14.079Z,9.80
2023-05-06T00:51:44.342Z,9.80
2023-05-06T00:54:13.623Z,9.70
2023-05-06T00:56:43.384Z,9.80
2023-05-06T00:59:12.072Z,9.80
2023-05-06T01:01:42.242Z,9.80
2023-05-06T01:04:11.810Z,9.80
2023-05-06T01:06:48.485Z,9.80
2023-05-06T01:09:25.106Z,9.80
2023-05-06T01:12:06.034Z,9.80
2023-05-06T01:14:41.897Z,9.90
2023-05-06T01:17:14.231Z,9.80
2023-05-06T01:19:49.632Z,9.90
2023-05-06T01:22:21.180Z,10.00
2023-05-06T01:24:51.522Z,10.00
2023-05-06T01:27:20.341Z,9.90
2023-05-06T01:29:49.475Z,9.90
2023-05-06T01:32:40.573Z,9.90
2023-05-06T01:35:18.628Z,9.90
2023-05-06T01:37:54.252Z,9.90
2023-05-06T01:40:27.880Z,9.90
2023-05-06T01:42:58.768Z,9.90
2023-05-06T01:45:30.397Z,9.90
2023-05-06T01:48:00.004Z,9.90
2023-05-06T01:50:30.569Z,9.90
2023-05-06T01:53:03.574Z,9.90
2023-05-06T01:55:33.753Z,9.90
2023-05-06T01:58:02.408Z,9.90
2023-05-06T02:00:31.609Z,9.90
2023-05-06T02:03:00.664Z,9.90
2023-05-06T02:05:29.729Z,9.80
2023-05-06T02:08:00.343Z,9.90
2023-05-06T02:10:29.497Z,9.90
2023-05-06T02:13:04.990Z,9.90
2023-05-06T02:15:33.915Z,9.90
2023-05-06T02:18:03.997Z,9.90
2023-05-06T02:20:33.091Z,9.90
2023-05-06T02:23:02.238Z,9.80
2023-05-06T02:25:31.884Z,9.80
2023-05-06T02:28:00.781Z,9.80
2023-05-06T02:30:31.639Z,9.80
2023-05-06T02:33:00.381Z,9.80
2023-05-06T02:35:29.172Z,9.90
2023-05-06T02:38:01.212Z,9.80
2023-05-06T02:40:30.795Z,9.90
2023-05-06T02:43:00.999Z,9.90
2023-05-06T02:45:31.315Z,9.90
2023-05-06T02:48:01.064Z,9.90
2023-05-06T02:50:29.660Z,9.90
2023-05-06T02:52:58.382Z,9.80
2023-05-06T02:55:27.550Z,9.80
2023-05-06T02:57:56.258Z,9.80
2023-05-06T03:00:25.264Z,9.90
2023-05-06T03:02:55.708Z,9.90
2023-05-06T03:05:25.024Z,9.80
2023-05-06T03:07:53.725Z,9.80
2023-05-06T03:10:25.502Z,9.80
2023-05-06T03:12:54.705Z,9.80
2023-05-06T03:15:23.741Z,9.80
2023-05-06T03:17:52.849Z,9.80
2023-05-06T03:20:23.669Z,9.70
2023-05-06T03:22:56.154Z,9.70
2023-05-06T03:25:25.672Z,9.70
2023-05-06T03:27:55.592Z,9.70
2023-05-06T03:30:25.746Z,9.70
2023-05-06T03:32:57.761Z,9.60
2023-05-06T03:35:33.864Z,9.60
2023-05-06T03:38:03.835Z,9.70
2023-05-06T03:40:43.621Z,9.70
2023-05-06T03:43:12.514Z,9.60
2023-05-06T03:45:41.197Z,9.60
2023-05-06T03:48:10.432Z,9.70
2023-05-06T03:50:44.308Z,9.60
2023-05-06T03:53:14.893Z,9.70
2023-05-06T03:55:46.513Z,9.70
2023-05-06T03:58:17.280Z,9.70
2023-05-06T04:00:47.612Z,9.70
2023-05-06T04:03:16.255Z,9.70
2023-05-06T04:05:52.484Z,9.70
2023-05-06T04:08:25.678Z,9.70
2023-05-06T04:10:56.527Z,9.70
2023-05-06T04:13:30.525Z,9.80
2023-05-06T04:16:01.774Z,9.70
2023-05-06T04:18:36.659Z,9.70
2023-05-06T04:21:12.339Z,9.70
2023-05-06T04:23:44.577Z,9.70
2023-05-06T04:26:17.546Z,9.70
2023-05-06T04:28:48.072Z,9.70
2023-05-06T04:31:17.781Z,9.60
2023-05-06T04:33:49.456Z,9.60
2023-05-06T04:36:24.780Z,9.60
2023-05-06T04:39:16.693Z,9.60
2023-05-06T04:41:45.940Z,9.60
2023-05-06T04:44:19.746Z,9.60
2023-05-06T04:46:49.606Z,9.60
2023-05-06T04:49:18.265Z,9.60
2023-05-06T04:51:48.509Z,9.70
2023-05-06T04:54:17.979Z,9.70
2023-05-06T04:56:46.992Z,9.60
2023-05-06T04:59:17.865Z,9.60
2023-05-06T05:01:47.056Z,9.60
2023-05-06T05:04:15.855Z,9.60
2023-05-06T05:06:45.153Z,9.60
2023-05-06T05:09:16.258Z,9.60
2023-05-06T05:11:47.449Z,9.60
2023-05-06T05:14:16.378Z,9.60
2023-05-06T05:16:45.267Z,9.70
2023-05-06T05:19:13.980Z,9.70
2023-05-06T05:21:43.879Z,9.70
2023-05-06T05:24:16.236Z,9.70
2023-05-06T05:26:45.018Z,9.80
2023-05-06T05:29:15.237Z,9.80
2023-05-06T05:31:44.512Z,9.80
2023-05-06T05:34:14.301Z,9.90
2023-05-06T05:36:43.721Z,9.80
2023-05-06T05:39:17.058Z,9.80
2023-05-06T05:41:48.248Z,9.80
2023-05-06T05:44:17.716Z,9.80
2023-05-06T05:46:46.663Z,9.70
2023-05-06T05:49:20.799Z,9.70
2023-05-06T05:51:52.499Z,9.70
2023-05-06T05:54:25.137Z,9.60
2023-05-06T05:56:54.092Z,9.60
2023-05-06T05:59:24.287Z,9.70
2023-05-06T06:01:54.666Z,9.70
2023-05-06T06:04:24.934Z,9.70
2023-05-06T06:06:54.206Z,9.70
2023-05-06T06:09:24.494Z,9.70
2023-05-06T06:11:55.102Z,9.70
2023-05-06T06:14:24.317Z,9.70
2023-05-06T06:16:54.314Z,9.70
2023-05-06T06:19:25.439Z,9.70
2023-05-06T06:21:54.957Z,9.80
2023-05-06T06:24:26.781Z,9.70
2023-05-06T06:26:55.698Z,9.80
2023-05-06T06:29:24.592Z,9.80
2023-05-06T06:31:53.269Z,9.70
2023-05-06T06:34:22.146Z,9.70
2023-05-06T06:36:50.943Z,9.70
2023-05-06T06:39:19.492Z,9.70
2023-05-06T06:41:49.450Z,9.70
2023-05-06T06:44:18.160Z,9.70
2023-05-06T06:46:46.873Z,9.60
2023-05-06T06:49:15.344Z,9.70
2023-05-06T06:51:43.895Z,9.60
2023-05-06T06:54:12.445Z,9.60
2023-05-06T06:56:41.186Z,9.60
2023-05-06T06:59:11.910Z,9.60
2023-05-06T07:01:40.602Z,9.60
2023-05-06T07:04:09.229Z,9.60
2023-05-06T07:06:38.036Z,9.60
2023-05-06T07:09:06.551Z,9.70
2023-05-06T07:11:35.139Z,9.70
2023-05-06T07:14:06.251Z,9.80
2023-05-06T07:16:36.497Z,9.70
2023-05-06T07:19:05.016Z,9.70
2023-05-06T07:21:33.856Z,9.70
2023-05-06T07:24:02.960Z,9.50
2023-05-06T07:26:34.745Z,9.60
2023-05-06T07:29:04.554Z,9.60
2023-05-06T07:31:36.691Z,9.60
2023-05-06T07:34:06.250Z,9.50
2023-05-06T07:36:40.659Z,9.40
2023-05-06T07:39:09.717Z,9.20
2023-05-06T07:41:38.561Z,9.30
2023-05-06T07:44:07.288Z,9.20
2023-05-06T07:46:37.907Z,9.20
2023-05-06T07:49:06.528Z,9.20
2023-05-06T07:51:35.072Z,9.20
2023-05-06T07:54:04.201Z,9.20
2023-05-06T07:56:33.135Z,9.20
2023-05-06T07:59:02.208Z,9.20
2023-05-06T08:01:30.838Z,9.10
2023-05-06T08:04:02.139Z,8.90
2023-05-06T08:06:32.944Z,9.00
2023-05-06T08:09:02.000Z,9.00
2023-05-06T08:11:31.297Z,8.90
2023-05-06T08:14:00.304Z,9.00
2023-05-06T08:16:29.604Z,9.00
2023-05-06T08:18:58.891Z,8.90
2023-05-06T08:21:29.921Z,8.90
2023-05-06T08:23:58.856Z,8.90
2023-05-06T08:26:27.896Z,8.80
2023-05-06T08:28:58.095Z,8.90
2023-05-06T08:31:26.923Z,8.90
2023-05-06T08:33:56.187Z,8.90
2023-05-06T08:36:25.140Z,8.90
2023-05-06T08:38:55.262Z,9.00
2023-05-06T08:41:24.302Z,9.10
2023-05-06T08:43:55.577Z,9.00
2023-05-06T08:46:24.252Z,9.10
2023-05-06T08:48:54.597Z,9.30
2023-05-06T08:51:29.740Z,9.30
2023-05-06T08:54:02.896Z,9.20
2023-05-06T08:56:34.308Z,9.20
2023-05-06T08:59:03.234Z,9.40
2023-05-06T09:01:32.996Z,9.40
2023-05-06T09:04:04.421Z,9.30
2023-05-06T09:06:33.216Z,9.20
2023-05-06T09:09:03.471Z,9.40
2023-05-06T09:11:32.708Z,9.40
2023-05-06T09:14:12.529Z,9.40
2023-05-06T09:16:42.989Z,9.40
2023-05-06T09:19:12.117Z,9.40
2023-05-06T09:21:43.020Z,9.30
2023-05-06T09:24:15.239Z,9.50
2023-05-06T09:26:46.528Z,9.50
2023-05-06T09:29:16.317Z,9.50
2023-05-06T09:31:46.552Z,9.70
2023-05-06T09:34:18.177Z,9.60
2023-05-06T09:36:47.312Z,9.70
2023-05-06T09:39:17.789Z,9.80
2023-05-06T09:41:48.946Z,9.80
2023-05-06T09:44:18.818Z,9.90
2023-05-06T09:46:47.962Z,10.10
2023-05-06T09:49:17.312Z,10.20
2023-05-06T09:51:48.287Z,10.00
2023-05-06T09:54:20.394Z,10.10
2023-05-06T09:56:51.050Z,10.10
2023-05-06T09:59:22.039Z,10.10
2023-05-06T10:01:53.234Z,10.00
2023-05-06T10:04:26.450Z,10.10
2023-05-06T10:06:58.565Z,10.20
2023-05-06T10:09:31.436Z,10.30
2023-05-06T10:12:02.922Z,10.20
2023-05-06T10:14:34.778Z,10.10
2023-05-06T10:17:08.336Z,10.20
2023-05-06T10:19:41.288Z,10.20
2023-05-06T10:22:18.692Z,10.10
2023-05-06T10:25:01.333Z,10.00
2023-05-06T10:27:32.002Z,10.10
2023-05-06T10:30:01.718Z,9.80
2023-05-06T10:32:34.253Z,9.90
2023-05-06T10:35:12.433Z,9.80
2023-05-06T10:37:43.098Z,9.80
2023-05-06T10:40:14.463Z,9.80
2023-05-06T10:42:43.486Z,9.70
2023-05-06T10:45:14.039Z,9.80
2023-05-06T10:48:16.640Z,9.80
2023-05-06T10:50:46.817Z,9.80
2023-05-06T10:53:15.937Z,9.80
2023-05-06T10:55:46.984Z,9.80
2023-05-06T10:58:17.806Z,9.90
2023-05-06T11:00:56.126Z,10.00
2023-05-06T11:03:26.598Z,10.00
2023-05-06T11:05:55.954Z,10.10
2023-05-06T11:08:27.446Z,10.20
2023-05-06T11:11:00.095Z,10.20
2023-05-06T11:13:30.516Z,10.20
2023-05-06T11:16:02.488Z,10.20
2023-05-06T11:18:46.231Z,10.10
2023-05-06T11:21:42.738Z,10.30
2023-05-06T11:24:13.890Z,10.10
2023-05-06T11:26:45.027Z,10.20
2023-05-06T11:29:13.711Z,10.20
2023-05-06T11:31:44.247Z,10.30
2023-05-06T11:34:15.503Z,10.40
2023-05-06T11:36:49.765Z,10.40
2023-05-06T11:39:18.420Z,10.40
2023-05-06T11:41:48.634Z,10.40
2023-05-06T11:44:31.931Z,10.50
2023-05-06T11:47:03.674Z,10.70
2023-05-06T11:49:36.889Z,10.70
2023-05-06T11:52:06.808Z,11.00
2023-05-06T11:54:37.649Z,11.00
2023-05-06T11:57:07.788Z,11.20
2023-05-06T11:59:39.131Z,11.30
2023-05-06T12:02:10.204Z,11.20
2023-05-06T12:04:40.123Z,11.10
2023-05-06T12:07:10.266Z,11.00
2023-05-06T12:09:41.208Z,10.80
2023-05-06T12:12:12.750Z,10.80
2023-05-06T12:14:42.019Z,11.00
2023-05-06T12:17:11.406Z,11.20
2023-05-06T12:19:41.261Z,11.40
2023-05-06T12:22:16.932Z,12.00
2023-05-06T12:24:46.624Z,12.30
2023-05-06T12:27:29.044Z,12.10
2023-05-06T12:29:57.752Z,12.00
2023-05-06T12:32:26.417Z,11.90
2023-05-06T12:34:56.496Z,12.00
2023-05-06T12:37:30.605Z,12.20
2023-05-06T12:39:59.737Z,11.90
2023-05-06T12:42:30.645Z,11.70
2023-05-06T12:45:00.189Z,11.80
2023-05-06T12:47:38.671Z,11.50
2023-05-06T12:50:08.274Z,11.50
2023-05-06T12:52:45.867Z,11.40
2023-05-06T12:55:14.907Z,11.30
2023-05-06T12:57:44.930Z,11.40
2023-05-06T13:00:14.931Z,11.40
2023-05-06T13:02:43.983Z,11.50
2023-05-06T13:05:14.632Z,11.40
2023-05-06T13:07:43.974Z,11.70
2023-05-06T13:10:13.326Z,11.60
2023-05-06T13:12:44.609Z,11.60
2023-05-06T13:15:14.879Z,11.60
2023-05-06T13:17:43.636Z,11.70
2023-05-06T13:20:14.771Z,11.80
2023-05-06T13:22:54.185Z,11.80
2023-05-06T13:25:23.814Z,11.70
2023-05-06T13:27:53.072Z,11.80
2023-05-06T13:30:23.206Z,11.80
2023-05-06T13:32:52.056Z,11.70
2023-05-06T13:35:20.697Z,11.90
2023-05-06T13:37:49.445Z,11.90
2023-05-06T13:40:19.003Z,11.80
2023-05-06T13:42:47.984Z,12.00
2023-05-06T13:45:17.377Z,12.00
2023-05-06T13:47:47.805Z,11.80
2023-05-06T13:50:17.102Z,11.80
2023-05-06T13:52:46.961Z,12.00
2023-05-06T13:55:16.903Z,11.70
2023-05-06T13:57:47.581Z,11.80
2023-05-06T14:00:17.726Z,11.60
2023-05-06T14:02:49.129Z,11.70
2023-05-06T14:05:18.927Z,11.50
2023-05-06T14:07:47.531Z,11.80
2023-05-06T14:10:17.094Z,11.80
2023-05-06T14:12:46.895Z,11.80
2023-05-06T14:15:17.306Z,12.00
2023-05-06T14:17:49.360Z,12.00
2023-05-06T14:20:18.758Z,11.60
2023-05-06T14:22:47.778Z,11.60
2023-05-06T14:25:17.331Z,11.70
2023-05-06T14:27:47.001Z,11.30
2023-05-06T14:30:17.706Z,11.30
2023-05-06T14:32:49.062Z,11.30
2023-05-06T14:35:19.644Z,11.10
2023-05-06T14:37:48.946Z,11.10
2023-05-06T14:40:19.261Z,11.30
2023-05-06T14:42:48.511Z,11.10
2023-05-06T14:45:18.046Z,11.20
2023-05-06T14:47:49.486Z,11.10
2023-05-06T14:50:18.929Z,11.20
2023-05-06T14:52:48.337Z,11.00
2023-05-06T14:55:18.229Z,11.10
2023-05-06T14:57:47.987Z,11.20
2023-05-06T15:00:19.786Z,11.20
2023-05-06T15:02:50.908Z,11.20
2023-05-06T15:05:21.225Z,11.50
2023-05-06T15:07:50.503Z,11.50
2023-05-06T15:10:19.977Z,11.40
2023-05-06T15:12:49.459Z,11.50
2023-05-06T15:15:19.412Z,11.50
2023-05-06T15:17:53.099Z,11.20
2023-05-06T15:20:22.813Z,11.40
2023-05-06T15:22:53.883Z,11.20
2023-05-06T15:25:34.363Z,11.00
2023-05-06T15:28:05.566Z,11.00
2023-05-06T15:30:34.789Z,11.10
2023-05-06T15:33:05.886Z,10.90
2023-05-06T15:35:36.251Z,11.00
2023-05-06T15:38:05.943Z,10.80
2023-05-06T15:40:36.731Z,10.60
2023-05-06T15:43:07.338Z,10.70
2023-05-06T15:45:38.025Z,10.70
2023-05-06T15:48:10.160Z,10.50
2023-05-06T15:50:39.607Z,10.60
2023-05-06T15:53:09.585Z,10.80
2023-05-06T15:55:45.490Z,10.70
2023-05-06T15:58:21.837Z,10.60
2023-05-06T16:00:51.697Z,10.80
2023-05-06T16:03:22.195Z,10.70
2023-05-06T16:05:52.216Z,10.50
2023-05-06T16:08:22.468Z,10.50
2023-05-06T16:10:54.417Z,10.50
2023-05-06T16:13:23.815Z,10.30
2023-05-06T16:15:53.187Z,10.40
2023-05-06T16:18:24.244Z,10.40
2023-05-06T16:20:54.493Z,10.30
2023-05-06T16:23:23.277Z,10.30
2023-05-06T16:25:52.868Z,10.40
2023-05-06T16:28:22.398Z,10.30
2023-05-06T16:30:52.366Z,10.20
2023-05-06T16:33:22.644Z,10.20
2023-05-06T16:35:51.454Z,10.20
2023-05-06T16:38:21.052Z,10.20
2023-05-06T16:40:52.046Z,10.20
2023-05-06T16:43:21.525Z,10.10
2023-05-06T16:45:50.644Z,10.00
2023-05-06T16:48:20.008Z,10.10
2023-05-06T16:50:52.173Z,10.20
2023-05-06T16:53:21.999Z,10.00
2023-05-06T16:55:51.885Z,10.00
2023-05-06T16:58:22.917Z,10.00
2023-05-06T17:00:53.931Z,9.90
2023-05-06T17:03:23.441Z,10.00
2023-05-06T17:05:54.674Z,10.10
2023-05-06T17:08:24.573Z,9.90
2023-05-06T17:10:55.772Z,9.90
2023-05-06T17:13:24.842Z,9.90
2023-05-06T17:15:54.638Z,9.80
2023-05-06T17:18:23.560Z,9.70
2023-05-06T17:20:56.534Z,9.80
2023-05-06T17:23:26.250Z,9.80
2023-05-06T17:25:58.174Z,9.80
2023-05-06T17:28:27.682Z,9.80
2023-05-06T17:30:56.798Z,9.80
2023-05-06T17:33:26.005Z,9.70
2023-05-06T17:35:56.845Z,9.90
2023-05-06T17:38:26.107Z,9.70
2023-05-06T17:40:55.160Z,9.50
2023-05-06T17:43:24.026Z,9.60
2023-05-06T17:45:53.092Z,9.70
2023-05-06T17:48:22.382Z,9.50
2023-05-06T17:50:51.898Z,9.40
2023-05-06T17:53:22.203Z,9.40
2023-05-06T17:55:51.498Z,9.30
2023-05-06T17:58:22.407Z,9.20
2023-05-06T18:00:51.549Z,9.30
2023-05-06T18:03:20.617Z,9.10
2023-05-06T18:05:51.862Z,9.00
2023-05-06T18:08:22.836Z,9.10
2023-05-06T18:10:52.357Z,9.00
2023-05-06T18:13:21.565Z,8.90
2023-05-06T18:15:50.672Z,9.00
2023-05-06T18:18:20.670Z,9.10
2023-05-06T18:20:51.829Z,9.10
2023-05-06T18:23:22.852Z,9.10
2023-05-06T18:25:52.516Z,9.00
2023-05-06T18:28:21.694Z,9.00
2023-05-06T18:30:51.713Z,8.90
2023-05-06T18:33:21.996Z,8.90
2023-05-06T18:35:51.093Z,8.80
2023-05-06T18:38:20.802Z,8.80
2023-05-06T18:40:55.492Z,8.80
2023-05-06T18:43:26.085Z,8.90
2023-05-06T18:45:58.998Z,8.80
2023-05-06T18:48:31.819Z,8.90
2023-05-06T18:51:14.710Z,8.90
2023-05-06T18:53:44.523Z,8.80
2023-05-06T18:56:17.352Z,8.80
2023-05-06T18:59:13.208Z,8.80
2023-05-06T19:01:43.946Z,9.40
2023-05-06T19:04:13.176Z,8.70
2023-05-06T19:06:42.513Z,8.70
2023-05-06T19:09:11.688Z,8.70
2023-05-06T19:11:43.062Z,8.60
2023-05-06T19:14:12.487Z,8.60
2023-05-06T19:16:42.676Z,8.60
2023-05-06T19:19:12.706Z,8.50
2023-05-06T19:21:42.456Z,8.50
2023-05-06T19:24:14.995Z,8.50
2023-05-06T19:26:48.094Z,8.50
2023-05-06T19:29:17.806Z,8.50
2023-05-06T19:31:47.392Z,8.50
2023-05-06T19:34:17.748Z,8.40
2023-05-06T19:36:47.240Z,8.40
2023-05-06T19:39:16.777Z,8.40
2023-05-06T19:41:48.489Z,8.30
2023-05-06T19:44:18.312Z,8.30
2023-05-06T19:46:50.667Z,8.30
2023-05-06T19:49:21.161Z,8.30
2023-05-06T19:51:53.519Z,8.20
2023-05-06T19:54:23.350Z,8.20
2023-05-06T19:56:54.241Z,8.20
2023-05-06T19:59:25.298Z,8.20
2023-05-06T20:01:55.312Z,8.20
2023-05-06T20:04:24.248Z,8.20
2023-05-06T20:06:54.707Z,8.20
2023-05-06T20:09:23.996Z,8.10
2023-05-06T20:11:55.457Z,8.10
2023-05-06T20:14:24.615Z,8.10
2023-05-06T20:16:53.975Z,8.00
2023-05-06T20:19:26.774Z,8.10
2023-05-06T20:21:56.612Z,8.10
2023-05-06T20:24:26.547Z,8.00
2023-05-06T20:26:59.717Z,8.00
2023-05-06T20:29:28.827Z,8.10
2023-05-06T20:31:58.443Z,8.00
2023-05-06T20:34:27.771Z,8.00
2023-05-06T20:36:57.111Z,8.00
2023-05-06T20:39:26.175Z,8.00
2023-05-06T20:41:56.915Z,7.90
2023-05-06T20:44:26.707Z,8.00
2023-05-06T20:46:55.470Z,8.00
2023-05-06T20:49:24.493Z,7.90
2023-05-06T20:51:53.216Z,7.90
2023-05-06T20:54:22.544Z,7.90
2023-05-06T20:56:54.058Z,7.80
2023-05-06T20:59:24.935Z,7.90
2023-05-06T21:01:53.901Z,7.80
2023-05-06T21:04:22.830Z,7.80
2023-05-06T21:06:51.751Z,7.90
2023-05-06T21:09:20.490Z,7.90
2023-05-06T21:11:49.714Z,7.80
2023-05-06T21:14:19.264Z,7.80
2023-05-06T21:16:50.828Z,7.80
2023-05-06T21:19:19.974Z,7.80
2023-05-06T21:21:48.761Z,7.80
2023-05-06T21:24:17.906Z,7.80
2023-05-06T21:26:46.963Z,7.80
2023-05-06T21:29:16.309Z,7.70
2023-05-06T21:31:45.366Z,7.80
2023-05-06T21:34:16.106Z,7.80
2023-05-06T21:36:53.675Z,7.70
2023-05-06T21:39:23.305Z,7.70
2023-05-06T21:41:52.295Z,7.70
2023-05-06T21:44:21.175Z,7.70
2023-05-06T21:46:50.324Z,7.70
2023-05-06T21:49:22.480Z,7.80
2023-05-06T21:51:51.883Z,7.70
2023-05-06T21:54:21.639Z,7.60
2023-05-06T21:56:50.594Z,7.70
2023-05-06T21:59:20.008Z,7.70
2023-05-06T22:01:49.372Z,7.60
2023-05-06T22:04:21.128Z,7.60
2023-05-06T22:06:50.001Z,7.60
2023-05-06T22:09:19.127Z,7.60
2023-05-06T22:11:48.130Z,7.50
2023-05-06T22:14:18.222Z,7.60
2023-05-06T22:16:49.194Z,7.60
2023-05-06T22:19:20.528Z,7.50
2023-05-06T22:21:49.531Z,7.50
2023-05-06T22:24:18.329Z,7.60
2023-05-06T22:26:47.746Z,7.50
2023-05-06T22:29:16.740Z,7.60
2023-05-06T22:31:45.441Z,7.60
2023-05-06T22:34:14.191Z,7.50
2023-05-06T22:36:44.758Z,7.50
2023-05-06T22:39:13.390Z,7.60
2023-05-06T22:41:42.021Z,7.50
2023-05-06T22:44:10.646Z,7.50
2023-05-06T22:46:39.412Z,7.60
2023-05-06T22:49:07.965Z,7.50
2023-05-06T22:51:36.822Z,7.60
2023-05-06T22:54:06.788Z,7.60
2023-05-06T22:56:35.612Z,7.50
2023-05-06T22:59:04.328Z,7.50
2023-05-06T23:01:33.399Z,7.50
2023-05-06T23:04:02.057Z,7.60
2023-05-06T23:06:31.164Z,7.50
2023-05-06T23:08:59.587Z,7.60
2023-05-06T23:11:30.205Z,7.60
2023-05-06T23:13:59.298Z,7.50
2023-05-06T23:16:30.003Z,7.60
2023-05-06T23:18:58.926Z,7.60
2023-05-06T23:21:28.046Z,7.50
2023-05-06T23:23:56.714Z,7.50
2023-05-06T23:26:25.432Z,7.60
2023-05-06T23:28:56.058Z,7.60
2023-05-06T23:31:24.870Z,7.60
2023-05-06T23:33:53.393Z,7.60
2023-05-06T23:36:22.651Z,7.50
2023-05-06T23:38:51.115Z,7.50
2023-05-06T23:41:19.696Z,7.60
2023-05-06T23:43:48.230Z,7.50
2023-05-06T23:46:20.639Z,7.50
2023-05-06T23:48:49.618Z,7.60
2023-05-06T23:51:18.337Z,7.50
2023-05-06T23:53:47.495Z,7.50
2023-05-06T23:56:16.521Z,7.50
2023-05-06T23:58:45.171Z,7.50
